Time;durP1;ratioP1;P1;durP2;ratioP2;P2;SDS_P1;SDS_P2;PMS_P1;PMS_P2;Temp;Humidity;BMP_temperature;BMP_pressure;BME280_temperature;BME280_humidity;BME280_pressure;Samples;Min_cycle;Max_cycle;Signal;HPM_P1;HPM_P2
2023/08/22 00:02:22;;;;;;;13.10;3.70;;;;;;;15.21;54.46;102059.56;4999930;28;20040;-75
2023/08/22 00:04:48;;;;;;;5.63;3.75;;;;;;;15.13;54.78;102046.72;4997777;28;20029;-76
2023/08/22 00:07:13;;;;;;;5.75;3.35;;;;;;;15.11;55.02;102054.69;4996333;28;20037;-75
2023/08/22 00:09:39;;;;;;;6.07;3.17;;;;;;;15.17;55.23;102056.22;4980864;28;20022;-76
2023/08/22 00:12:05;;;;;;;2.35;1.95;;;;;;;15.29;55.13;102052.25;4992048;28;20068;-76
2023/08/22 00:14:31;;;;;;;6.53;3.47;;;;;;;15.39;54.50;102066.75;4980219;28;20074;-76
2023/08/22 00:16:56;;;;;;;6.95;2.47;;;;;;;15.56;54.12;102068.69;4977522;28;20072;-76
2023/08/22 00:19:22;;;;;;;6.00;3.28;;;;;;;15.65;54.11;102085.88;4979849;28;20046;-75
2023/08/22 00:21:47;;;;;;;12.18;4.00;;;;;;;15.65;54.06;102075.34;4981126;28;20060;-75
2023/08/22 00:24:13;;;;;;;3.95;2.47;;;;;;;15.52;54.13;102061.81;4975637;28;20042;-76
2023/08/22 00:26:38;;;;;;;7.45;3.05;;;;;;;15.35;54.36;102052.00;4994576;28;20030;-77
2023/08/22 00:29:04;;;;;;;4.95;3.03;;;;;;;15.41;54.65;102064.06;4976265;28;20108;-75
2023/08/22 00:31:30;;;;;;;6.68;2.72;;;;;;;15.49;53.89;102059.34;4997589;28;20061;-74
2023/08/22 00:33:55;;;;;;;5.00;2.42;;;;;;;15.56;53.82;102060.78;4987756;28;20139;-75
2023/08/22 00:36:21;;;;;;;4.88;2.33;;;;;;;15.70;53.94;102057.53;4993541;28;20045;-74
2023/08/22 00:38:46;;;;;;;2.60;2.00;;;;;;;15.73;54.01;102057.44;4977397;28;20074;-73
2023/08/22 00:41:11;;;;;;;6.65;2.80;;;;;;;15.73;53.31;102036.34;4976156;28;20100;-76
2023/08/22 00:43:37;;;;;;;3.58;2.50;;;;;;;15.53;53.65;102018.75;4976102;28;20129;-74
2023/08/22 00:46:02;;;;;;;4.50;2.47;;;;;;;15.40;53.88;101997.34;4981940;28;20386;-75
2023/08/22 00:48:28;;;;;;;3.65;2.20;;;;;;;15.34;53.92;101992.31;4976489;28;20447;-76
2023/08/22 00:50:54;;;;;;;6.63;2.92;;;;;;;15.30;54.24;101996.00;4977044;28;20084;-77
2023/08/22 00:53:20;;;;;;;4.15;2.00;;;;;;;15.36;54.50;101996.59;4960858;28;20095;-76
2023/08/22 00:55:45;;;;;;;3.33;2.35;;;;;;;15.46;54.06;101991.81;4984695;28;20044;-75
2023/08/22 00:58:13;;;;;;;3.47;2.60;;;;;;;15.57;53.85;101993.97;4980391;28;20137;-75
2023/08/22 01:00:38;;;;;;;5.97;2.35;;;;;;;15.62;53.67;101996.41;4993512;28;20121;-75
2023/08/22 01:03:04;;;;;;;2.63;2.00;;;;;;;15.72;53.39;102003.00;4983614;28;20468;-72
2023/08/22 01:05:37;;;;;;;4.80;2.15;;;;;;;15.67;53.65;101999.72;4996728;28;20488;-76
2023/08/22 01:08:18;;;;;;;4.15;1.70;;;;;;;15.67;53.66;101982.13;4996465;28;20128;-76
2023/08/22 01:10:48;;;;;;;6.07;1.25;;;;;;;15.74;53.65;101982.69;4996357;28;20440;-75
2023/08/22 01:13:22;;;;;;;3.63;1.83;;;;;;;15.79;52.73;101988.63;4975400;28;20033;-75
2023/08/22 01:15:49;;;;;;;4.45;2.00;;;;;;;15.80;53.12;101990.34;4977091;28;20058;-74
2023/08/22 01:18:18;;;;;;;2.00;1.48;;;;;;;15.87;52.92;101986.50;4980458;28;20034;-75
2023/08/22 01:20:44;;;;;;;2.78;1.45;;;;;;;15.88;52.86;101993.47;4982236;28;20040;-74
2023/08/22 01:23:10;;;;;;;2.90;1.55;;;;;;;15.85;52.73;101993.63;4982815;28;20046;-74
2023/08/22 01:25:37;;;;;;;6.15;2.22;;;;;;;15.84;52.74;102005.09;4979240;28;20034;-75
2023/08/22 01:28:29;;;;;;;3.72;1.33;;;;;;;15.91;52.63;101998.63;4983555;28;20141;-76
2023/08/22 01:31:20;;;;;;;2.50;1.90;;;;;;;15.87;52.68;102012.00;4982506;28;20037;-76
2023/08/22 01:34:08;;;;;;;4.00;1.40;;;;;;;15.88;52.66;102019.84;4994650;28;20041;-74
2023/08/22 01:36:37;;;;;;;3.45;1.95;;;;;;;15.81;53.00;102018.41;4972720;28;21563;-75
2023/08/22 01:39:07;;;;;;;6.05;1.80;;;;;;;15.77;52.61;102014.19;4980247;28;20595;-74
2023/08/22 01:41:34;;;;;;;4.15;2.05;;;;;;;15.73;52.89;102012.63;4980051;28;20038;-75
2023/08/22 01:44:01;;;;;;;3.35;2.30;;;;;;;15.73;52.72;102021.38;4982646;28;20044;-76
2023/08/22 01:46:26;;;;;;;6.65;2.40;;;;;;;15.64;52.73;102010.38;4995162;28;20034;-75
2023/08/22 01:48:52;;;;;;;4.85;1.70;;;;;;;15.59;52.92;102014.09;4979215;28;20862;-75
2023/08/22 01:51:19;;;;;;;2.85;1.80;;;;;;;15.52;52.99;102002.06;4963328;28;20038;-74
2023/08/22 01:53:44;;;;;;;4.50;1.75;;;;;;;15.63;53.14;102009.53;4975042;28;20046;-74
2023/08/22 01:56:09;;;;;;;7.20;1.90;;;;;;;15.70;52.84;102016.22;4983548;28;20044;-75
2023/08/22 01:58:35;;;;;;;2.90;2.10;;;;;;;15.68;52.47;102011.94;4979880;28;20081;-75
2023/08/22 02:01:11;;;;;;;3.22;1.98;;;;;;;15.66;52.72;102011.16;4981672;28;20115;-75
2023/08/22 02:03:38;;;;;;;5.55;1.80;;;;;;;15.69;52.70;102003.13;4975619;28;20500;-74
2023/08/22 02:06:04;;;;;;;4.18;1.77;;;;;;;15.74;52.72;102009.06;4985745;28;20033;-75
2023/08/22 02:08:30;;;;;;;7.53;2.53;;;;;;;15.73;52.43;102002.94;4979360;28;20201;-75
2023/08/22 02:10:58;;;;;;;5.35;3.00;;;;;;;15.80;52.39;101999.09;4982466;28;20087;-76
2023/08/22 02:13:24;;;;;;;6.00;3.20;;;;;;;15.82;52.48;102000.78;4940920;28;20154;-76
2023/08/22 02:15:49;;;;;;;4.78;2.50;;;;;;;15.76;52.06;101989.59;4992735;28;20511;-76
2023/08/22 02:18:16;;;;;;;5.38;2.38;;;;;;;15.64;52.57;101984.00;4994921;28;20928;-74
2023/08/22 02:20:41;;;;;;;7.60;2.97;;;;;;;15.51;52.65;101986.34;4994792;28;20044;-76
2023/08/22 02:23:09;;;;;;;3.05;2.10;;;;;;;15.45;53.13;101974.28;4972579;28;20034;-75
2023/08/22 02:25:35;;;;;;;6.20;2.22;;;;;;;15.38;53.04;101975.47;4992048;28;20771;-75
2023/08/22 02:28:02;;;;;;;3.97;1.50;;;;;;;15.35;53.33;101973.00;4978054;28;20099;-75
2023/08/22 02:30:29;;;;;;;2.80;1.65;;;;;;;15.32;53.32;101968.69;4995207;28;20041;-75
2023/08/22 02:32:54;;;;;;;4.03;1.20;;;;;;;15.28;53.64;101966.25;4978590;28;20822;-76
2023/08/22 02:35:20;;;;;;;3.58;1.25;;;;;;;15.27;53.82;101964.53;4991344;28;20408;-75
2023/08/22 02:37:45;;;;;;;5.68;1.10;;;;;;;15.36;53.29;101965.00;4979887;28;20061;-75
2023/08/22 02:40:11;;;;;;;3.53;1.27;;;;;;;15.38;53.30;101951.78;4978381;28;20042;-75
2023/08/22 02:42:37;;;;;;;3.08;1.38;;;;;;;15.33;53.28;101948.50;4992638;28;20057;-75
2023/08/22 02:45:04;;;;;;;5.07;1.10;;;;;;;15.30;53.41;101949.44;4979669;28;20045;-74
2023/08/22 02:47:31;;;;;;;3.47;1.20;;;;;;;15.21;53.50;101948.97;4979409;28;20034;-75
2023/08/22 02:49:59;;;;;;;3.38;1.20;;;;;;;15.29;53.43;101949.53;4977711;28;20036;-74
2023/08/22 02:52:27;;;;;;;3.17;0.60;;;;;;;15.28;53.63;101948.69;4980147;28;20092;-74
2023/08/22 02:54:53;;;;;;;2.72;1.08;;;;;;;15.34;53.53;101955.44;4979829;28;20050;-74
2023/08/22 02:57:23;;;;;;;2.47;1.20;;;;;;;15.35;53.24;101951.91;4981795;28;20084;-75
2023/08/22 02:59:49;;;;;;;3.53;0.75;;;;;;;15.35;53.25;101958.03;4981448;28;20038;-75
2023/08/22 03:02:14;;;;;;;3.85;0.73;;;;;;;15.31;53.54;101960.88;4975084;28;20579;-74
2023/08/22 03:04:40;;;;;;;6.57;1.33;;;;;;;15.25;53.55;101950.59;4973662;28;20026;-75
2023/08/22 03:07:06;;;;;;;6.57;1.50;;;;;;;15.05;54.19;101952.25;4979560;28;20559;-75
2023/08/22 03:09:32;;;;;;;5.80;0.90;;;;;;;14.99;54.37;101957.75;4971248;28;20046;-74
2023/08/22 03:11:58;;;;;;;3.92;1.35;;;;;;;14.89;54.62;101959.91;4994082;28;20101;-76
2023/08/22 03:14:26;;;;;;;2.97;1.48;;;;;;;14.92;54.95;101964.19;4980515;28;20878;-75
2023/08/22 03:16:51;;;;;;;5.15;1.48;;;;;;;15.06;54.42;101961.88;4960465;28;20040;-75
2023/08/22 03:19:17;;;;;;;3.35;1.45;;;;;;;15.05;54.58;101952.25;4976127;28;20531;-76
2023/08/22 03:21:44;;;;;;;4.68;1.23;;;;;;;15.11;54.30;101959.88;4976881;28;20451;-75
2023/08/22 03:24:09;;;;;;;3.92;1.58;;;;;;;15.15;54.06;101950.94;4979732;28;20066;-76
2023/08/22 03:26:35;;;;;;;2.42;1.45;;;;;;;15.15;54.20;101945.69;4975648;28;20026;-75
2023/08/22 03:29:02;;;;;;;1.52;0.93;;;;;;;15.20;54.40;101952.53;4979850;28;20603;-76
2023/08/22 03:31:28;;;;;;;3.88;1.90;;;;;;;15.13;54.40;101951.94;4991181;28;20085;-75
2023/08/22 03:33:54;;;;;;;3.53;1.73;;;;;;;15.07;54.51;101953.03;4963101;28;20061;-76
2023/08/22 03:36:20;;;;;;;3.33;2.38;;;;;;;15.15;54.36;101958.84;4981216;28;20037;-75
2023/08/22 03:38:48;;;;;;;6.13;2.25;;;;;;;15.19;54.10;101959.56;4975613;28;20137;-75
2023/08/22 03:41:13;;;;;;;8.15;2.80;;;;;;;15.25;54.05;101959.34;4976731;28;20825;-73
2023/08/22 03:43:39;;;;;;;3.15;2.85;;;;;;;15.28;54.04;101959.22;4974312;28;20048;-76
2023/08/22 03:46:05;;;;;;;4.82;3.10;;;;;;;15.31;53.97;101960.88;4976418;28;20641;-74
2023/08/22 03:48:31;;;;;;;5.15;2.85;;;;;;;15.34;53.75;101958.09;4974644;28;20045;-75
2023/08/22 03:50:56;;;;;;;4.88;2.67;;;;;;;15.30;53.89;101964.41;4972056;28;20054;-75
2023/08/22 03:53:22;;;;;;;3.22;2.42;;;;;;;15.26;53.95;101953.16;4988812;28;20080;-75
2023/08/22 03:55:49;;;;;;;8.35;4.05;;;;;;;15.12;54.05;101948.44;4978621;28;20034;-76
2023/08/22 03:58:17;;;;;;;6.22;3.47;;;;;;;15.00;54.66;101950.75;4979108;28;20065;-76
2023/08/22 04:00:43;;;;;;;5.82;3.05;;;;;;;14.99;54.63;101949.84;4959594;28;20628;-74
2023/08/22 04:03:12;;;;;;;8.63;4.15;;;;;;;14.92;54.91;101945.78;4978301;28;20029;-76
2023/08/22 04:05:42;;;;;;;4.82;2.88;;;;;;;14.82;55.12;101947.94;4977804;28;20117;-76
2023/08/22 04:08:07;;;;;;;3.85;2.95;;;;;;;14.81;55.17;101940.94;4971347;28;20033;-76
2023/08/22 04:10:33;;;;;;;10.32;3.75;;;;;;;14.85;55.24;101937.28;4977768;28;20806;-74
2023/08/22 04:12:58;;;;;;;5.30;3.05;;;;;;;14.85;54.85;101932.00;4975098;28;20046;-74
2023/08/22 04:15:23;;;;;;;7.45;4.20;;;;;;;14.76;54.92;101943.78;4959912;28;20042;-76
2023/08/22 04:17:50;;;;;;;6.60;3.72;;;;;;;14.64;55.71;101931.13;4975745;28;20133;-76
2023/08/22 04:20:15;;;;;;;8.57;3.60;;;;;;;14.54;55.71;101933.28;4976673;28;20041;-75
2023/08/22 04:22:41;;;;;;;12.00;4.97;;;;;;;14.53;55.67;101939.44;4958185;28;20084;-76
2023/08/22 04:25:08;;;;;;;15.32;4.95;;;;;;;14.40;55.77;101934.72;4979098;28;20079;-74
2023/08/22 04:27:34;;;;;;;7.18;4.60;;;;;;;14.33;55.96;101932.31;4988427;28;20566;-75
2023/08/22 04:30:00;;;;;;;6.57;4.38;;;;;;;14.24;56.29;101930.03;4963983;28;20057;-75
2023/08/22 04:32:26;;;;;;;9.95;4.40;;;;;;;14.18;56.39;101930.28;4974236;28;20034;-75
2023/08/22 04:34:53;;;;;;;7.30;3.30;;;;;;;14.20;56.53;101936.31;4992714;28;20053;-75
2023/08/22 04:37:19;;;;;;;8.00;3.75;;;;;;;14.30;56.28;101934.19;4979052;28;20025;-75
2023/08/22 04:39:44;;;;;;;9.00;4.70;;;;;;;14.25;56.30;101941.41;4989020;28;20022;-75
2023/08/22 04:42:29;;;;;;;5.90;4.72;;;;;;;14.25;56.50;101923.00;4979904;28;20033;-74
2023/08/22 04:45:01;;;;;;;5.63;3.58;;;;;;;14.38;56.64;101932.13;4980148;28;20180;-76
2023/08/22 04:47:26;;;;;;;9.77;5.35;;;;;;;14.44;56.41;101938.97;4959954;28;20113;-75
2023/08/22 04:49:52;;;;;;;7.55;5.30;;;;;;;14.41;56.32;101941.69;4960316;28;21148;-74
2023/08/22 04:52:18;;;;;;;6.63;4.93;;;;;;;14.46;56.53;101935.34;4973641;28;20793;-76
2023/08/22 04:54:44;;;;;;;12.20;4.82;;;;;;;14.49;56.23;101929.09;4977274;28;20037;-74
2023/08/22 04:57:09;;;;;;;14.98;4.80;;;;;;;14.50;56.11;101933.44;4990464;28;20026;-76
2023/08/22 04:59:35;;;;;;;12.63;5.63;;;;;;;14.54;56.11;101932.41;4975583;28;20043;-76
2023/08/22 05:02:00;;;;;;;8.50;4.72;;;;;;;14.74;55.53;101929.81;4979652;28;20052;-73
2023/08/22 05:04:27;;;;;;;7.35;4.75;;;;;;;;;;4976123;28;20042;-76
2023/08/22 05:06:53;;;;;;;7.70;5.82;;;;;;;14.69;55.51;101937.06;4962176;28;20116;-76
2023/08/22 05:09:18;;;;;;;9.85;5.93;;;;;;;14.67;55.73;101938.88;4974685;28;20042;-76
2023/08/22 05:11:50;;;;;;;9.88;6.10;;;;;;;14.64;55.57;101933.75;4976424;28;20120;-74
2023/08/22 05:14:16;;;;;;;7.68;5.72;;;;;;;14.59;56.05;101941.00;4975174;28;20050;-75
2023/08/22 05:16:43;;;;;;;10.70;5.57;;;;;;;14.69;55.96;101944.94;4976071;28;20099;-75
2023/08/22 05:19:10;;;;;;;9.20;5.55;;;;;;;14.69;55.75;101944.94;4973076;28;20053;-77
2023/08/22 05:21:35;;;;;;;15.00;7.03;;;;;;;14.63;55.85;101942.56;4976585;28;20072;-76
2023/08/22 05:24:01;;;;;;;10.27;5.68;;;;;;;14.63;55.92;101937.28;4979654;28;20114;-78
2023/08/22 05:26:27;;;;;;;11.63;5.82;;;;;;;14.76;56.37;101943.78;4962557;28;20683;-75
2023/08/22 05:28:52;;;;;;;7.68;4.78;;;;;;;15.58;56.01;101941.22;4956461;28;21298;-76
2023/08/22 05:31:23;;;;;;;7.55;5.20;;;;;;;18.29;50.57;101935.69;4976973;28;20033;-76
2023/08/22 05:33:51;;;;;;;9.25;4.50;;;;;;;20.36;43.71;101934.81;4974986;28;20045;-77
2023/08/22 05:36:16;;;;;;;6.47;4.32;;;;;;;21.90;39.76;101935.88;4989273;28;20030;-78
2023/08/22 05:38:42;;;;;;;9.38;4.00;;;;;;;23.20;36.62;101928.84;4977706;28;20050;-76
2023/08/22 05:41:08;;;;;;;7.78;3.83;;;;;;;24.16;33.62;101935.50;4982526;28;20037;-75
2023/08/22 05:43:36;;;;;;;4.15;2.75;;;;;;;25.00;32.69;101943.72;4978573;28;20045;-75
2023/08/22 05:46:02;;;;;;;5.07;3.00;;;;;;;26.04;32.00;101930.22;4976310;28;20049;-75
2023/08/22 05:48:30;;;;;;;4.68;3.15;;;;;;;26.53;30.94;101941.03;4974982;28;20061;-75
2023/08/22 05:51:01;;;;;;;4.30;2.33;;;;;;;27.07;28.73;101928.84;4976314;28;20038;-75
2023/08/22 05:53:27;;;;;;;2.53;2.33;;;;;;;25.40;31.97;101926.91;4980185;28;20771;-76
2023/08/22 05:55:53;;;;;;;3.20;2.65;;;;;;;23.48;34.43;101928.56;4978447;28;20247;-75
2023/08/22 05:58:19;;;;;;;3.75;2.92;;;;;;;22.29;36.28;101932.16;4962011;28;20556;-75
2023/08/22 06:00:46;;;;;;;8.15;2.70;;;;;;;21.55;38.35;101931.22;4979625;28;20026;-76
2023/08/22 06:03:12;;;;;;;4.72;1.98;;;;;;;21.46;39.00;101937.16;4980263;28;20059;-75
2023/08/22 06:05:38;;;;;;;6.95;1.92;;;;;;;21.46;39.55;101932.69;4991061;28;20030;-76
2023/08/22 06:08:04;;;;;;;3.25;1.48;;;;;;;21.20;39.31;101942.50;4996674;28;20481;-75
2023/08/22 06:10:30;;;;;;;5.80;2.75;;;;;;;21.60;39.73;101947.75;4977897;28;20053;-74
2023/08/22 06:12:56;;;;;;;9.40;2.38;;;;;;;22.25;38.35;101946.66;4977631;28;20153;-75
2023/08/22 06:15:21;;;;;;;4.28;1.95;;;;;;;21.95;38.07;101939.03;4976946;28;20029;-77
2023/08/22 06:17:48;;;;;;;3.00;1.77;;;;;;;21.55;38.98;101937.38;4992836;28;20050;-76
2023/08/22 06:20:15;;;;;;;3.95;2.13;;;;;;;21.30;39.17;101942.69;4992465;28;20029;-75
2023/08/22 06:22:41;;;;;;;4.43;2.20;;;;;;;21.07;39.21;101938.97;4979005;28;20053;-77
2023/08/22 06:25:07;;;;;;;3.70;2.22;;;;;;;20.75;39.75;101941.94;4983361;28;20037;-75
2023/08/22 06:27:33;;;;;;;4.28;1.92;;;;;;;21.72;38.43;101943.34;4962942;28;20060;-75
2023/08/22 06:30:04;;;;;;;2.63;1.77;;;;;;;22.50;37.09;101932.38;4981937;28;20030;-75
2023/08/22 06:32:33;;;;;;;2.50;1.63;;;;;;;23.17;35.48;101928.25;4977522;28;20061;-75
2023/08/22 06:34:59;;;;;;;4.05;1.30;;;;;;;23.45;35.19;101926.09;4980677;28;20038;-75
2023/08/22 06:37:25;;;;;;;4.82;1.70;;;;;;;23.03;36.07;101920.44;4981389;28;20034;-75
2023/08/22 06:39:52;;;;;;;4.25;1.50;;;;;;;22.32;37.06;101925.75;4979447;28;20685;-75
2023/08/22 06:42:18;;;;;;;3.80;1.30;;;;;;;22.80;37.34;101928.38;4992526;28;20029;-74
2023/08/22 06:44:48;;;;;;;5.65;1.20;;;;;;;24.06;34.83;101931.03;4959174;28;20137;-75
2023/08/22 06:47:14;;;;;;;4.60;1.25;;;;;;;25.67;32.22;101936.22;4979695;28;20068;-76
2023/08/22 06:49:40;;;;;;;8.02;2.08;;;;;;;25.37;31.78;101940.53;4980462;28;20033;-75
2023/08/22 06:52:06;;;;;;;5.10;2.25;;;;;;;25.71;31.02;101934.97;4987518;28;20029;-75
2023/08/22 06:54:32;;;;;;;2.35;1.23;;;;;;;26.34;30.93;101932.00;4987175;28;20747;-78
2023/08/22 06:56:58;;;;;;;2.47;1.38;;;;;;;26.25;29.73;101936.38;4987100;28;20030;-76
2023/08/22 06:59:24;;;;;;;4.07;1.10;;;;;;;26.76;30.16;101934.41;4998537;28;20103;-79
2023/08/22 07:01:49;;;;;;;7.18;1.65;;;;;;;25.99;29.29;101940.53;4967831;28;20060;-80
2023/08/22 07:04:15;;;;;;;5.68;1.33;;;;;;;27.11;28.80;101931.09;4984477;28;20285;-79
2023/08/22 07:06:44;;;;;;;2.40;1.05;;;;;;;27.39;28.42;101931.19;4982858;28;20563;-79
2023/08/22 07:09:09;;;;;;;3.40;1.40;;;;;;;29.01;26.30;101925.94;4983626;28;20128;-79
2023/08/22 07:11:35;;;;;;;7.07;1.08;;;;;;;29.38;26.38;101924.84;4998827;28;20116;-79
2023/08/22 07:14:01;;;;;;;2.30;1.13;;;;;;;28.71;26.85;101928.94;4978562;28;20045;-77
2023/08/22 07:16:27;;;;;;;2.83;0.77;;;;;;;27.64;28.60;101923.47;4981096;28;20060;-78
2023/08/22 07:18:52;;;;;;;1.50;0.77;;;;;;;26.17;30.68;101928.16;4962274;28;20911;-76
2023/08/22 07:21:18;;;;;;;2.97;1.20;;;;;;;25.37;32.14;101932.50;4982081;28;20033;-79
2023/08/22 07:23:44;;;;;;;4.70;1.55;;;;;;;24.28;33.34;101940.81;4992947;28;20046;-78
2023/08/22 07:26:09;;;;;;;2.97;1.58;;;;;;;23.75;34.60;101942.38;4982711;28;20036;-78
2023/08/22 07:28:35;;;;;;;2.38;1.27;;;;;;;23.94;35.03;101940.91;4981103;28;20041;-77
2023/08/22 07:31:04;;;;;;;5.15;0.90;;;;;;;24.09;34.74;101936.16;4992749;28;20065;-77
2023/08/22 07:33:30;;;;;;;7.47;4.57;;;;;;;25.02;33.11;101941.78;4959984;28;20038;-77
2023/08/22 07:35:55;;;;;;;4.30;1.02;;;;;;;27.11;30.03;101938.31;4978449;28;20040;-77
2023/08/22 07:38:21;;;;;;;2.55;1.10;;;;;;;29.13;27.87;101943.56;4958116;28;20096;-78
2023/08/22 07:40:46;;;;;;;5.18;1.55;;;;;;;29.37;26.23;101942.81;4975465;28;20041;-78
2023/08/22 07:43:12;;;;;;;3.13;0.60;;;;;;;30.29;25.29;101940.31;4976694;28;20045;-77
2023/08/22 07:45:37;;;;;;;3.85;0.80;;;;;;;30.59;24.62;101941.53;4972090;28;20108;-78
2023/08/22 07:48:03;;;;;;;5.72;0.70;;;;;;;29.37;24.97;101937.44;4974474;28;20680;-78
2023/08/22 07:50:30;;;;;;;2.80;0.65;;;;;;;29.38;25.70;101935.59;4971854;28;20550;-75
2023/08/22 07:52:55;;;;;;;3.08;0.70;;;;;;;28.22;26.99;101939.25;4969594;28;20049;-78
2023/08/22 07:55:23;;;;;;;3.90;0.93;;;;;;;27.77;26.92;101950.81;4974521;28;20034;-78
2023/08/22 07:57:50;;;;;;;3.60;0.50;;;;;;;28.06;27.97;101947.94;4973063;28;20061;-78
2023/08/22 08:00:16;;;;;;;1.63;0.50;;;;;;;28.57;26.00;101948.31;4974367;28;20056;-78
2023/08/22 08:02:43;;;;;;;3.90;0.50;;;;;;;29.94;24.43;101944.94;4972423;28;20046;-77
2023/08/22 08:05:08;;;;;;;2.45;0.85;;;;;;;30.34;23.83;101949.56;4975058;28;20550;-77
2023/08/22 08:07:34;;;;;;;2.72;0.73;;;;;;;29.71;25.40;101953.63;4971492;28;20541;-78
2023/08/22 08:10:00;;;;;;;7.40;0.88;;;;;;;29.04;26.65;101956.09;4960183;28;20535;-79
2023/08/22 08:12:26;;;;;;;3.40;1.17;;;;;;;26.73;28.63;101949.94;4988743;28;20038;-79
2023/08/22 08:14:52;;;;;;;3.05;1.13;;;;;;;26.74;29.47;101951.63;4973152;28;20046;-78
2023/08/22 08:17:18;;;;;;;7.25;1.65;;;;;;;26.67;29.11;101962.94;4976827;28;20041;-78
2023/08/22 08:19:45;;;;;;;6.20;1.35;;;;;;;26.77;28.81;101957.56;4989046;28;20034;-77
2023/08/22 08:22:11;;;;;;;4.03;0.95;;;;;;;27.70;27.79;101950.56;4994508;28;20026;-78
2023/08/22 08:24:37;;;;;;;5.00;1.50;;;;;;;30.23;24.73;101955.28;4983739;28;20979;-77
2023/08/22 08:27:03;;;;;;;9.25;1.05;;;;;;;30.37;23.93;101954.63;4993384;28;20177;-78
2023/08/22 08:29:29;;;;;;;1.73;0.73;;;;;;;31.06;22.78;101948.91;4991377;28;20057;-79
2023/08/22 08:31:56;;;;;;;7.90;1.25;;;;;;;31.13;23.26;101949.06;4978222;28;20112;-79
2023/08/22 08:34:22;;;;;;;9.98;0.57;;;;;;;31.57;21.94;101954.00;4977442;28;20111;-78
2023/08/22 08:36:49;;;;;;;7.13;0.57;;;;;;;30.85;22.24;101957.53;4973726;28;20053;-78
2023/08/22 08:39:15;;;;;;;2.88;0.50;;;;;;;30.18;24.04;101957.66;4975922;28;20038;-79
2023/08/22 08:41:53;;;;;;;3.25;0.63;;;;;;;29.33;24.44;101965.72;4976281;28;20754;-79
2023/08/22 08:44:20;;;;;;;3.53;0.77;;;;;;;29.03;25.25;101961.63;4991762;28;20065;-79
2023/08/22 08:46:46;;;;;;;1.50;0.65;;;;;;;30.61;23.10;101958.38;4981149;28;20363;-80
2023/08/22 08:49:15;;;;;;;2.08;0.47;;;;;;;31.53;22.00;101956.22;4974103;28;20847;-78
2023/08/22 08:51:41;;;;;;;5.45;0.93;;;;;;;31.50;22.30;101955.75;4974449;28;20033;-78
2023/08/22 08:54:07;;;;;;;6.00;1.25;;;;;;;32.44;21.28;101954.69;4975370;28;21127;-77
2023/08/22 08:56:33;;;;;;;4.72;0.85;;;;;;;31.44;22.37;101957.22;4974188;28;20116;-78
2023/08/22 08:58:58;;;;;;;5.75;0.90;;;;;;;30.95;23.08;101951.94;4976750;28;20049;-77
2023/08/22 09:01:26;;;;;;;2.38;0.60;;;;;;;30.13;23.36;101952.75;4993109;28;20117;-77
2023/08/22 09:03:51;;;;;;;5.80;0.50;;;;;;;30.03;24.65;101956.56;4990420;28;20041;-78
2023/08/22 09:06:17;;;;;;;2.03;0.43;;;;;;;30.22;23.90;101950.94;4963668;28;20037;-77
2023/08/22 09:09:04;;;;;;;2.97;0.30;;;;;;;30.14;23.69;101953.59;4977287;28;20162;-77
2023/08/22 09:11:30;;;;;;;3.05;0.60;;;;;;;27.95;26.44;101956.22;4993363;28;20095;-78
2023/08/22 09:13:57;;;;;;;3.42;0.30;;;;;;;27.52;27.36;101947.78;4961417;28;20128;-78
2023/08/22 09:16:26;;;;;;;4.38;0.40;;;;;;;27.20;28.14;101952.69;4973038;28;20089;-78
2023/08/22 09:18:52;;;;;;;2.88;0.30;;;;;;;27.59;27.86;101948.03;4979160;28;20104;-77
2023/08/22 09:21:17;;;;;;;3.47;0.30;;;;;;;27.77;27.06;101940.06;4981059;28;20034;-77
2023/08/22 09:23:43;;;;;;;2.72;0.47;;;;;;;27.52;27.96;101946.94;4981171;28;20690;-77
2023/08/22 09:26:11;;;;;;;5.43;0.45;;;;;;;26.66;27.33;101938.94;4997262;28;20034;-78
2023/08/22 09:28:40;;;;;;;5.55;0.73;;;;;;;26.75;28.20;101937.25;4980643;28;20427;-76
2023/08/22 09:31:06;;;;;;;6.40;0.70;;;;;;;27.25;27.62;101931.63;4978293;28;20049;-76
2023/08/22 09:33:46;;;;;;;5.05;0.77;;;;;;;27.66;27.50;101942.97;4982157;28;20053;-78
2023/08/22 09:36:11;;;;;;;1.15;0.20;;;;;;;26.89;26.55;101939.47;4983342;28;20852;-78
2023/08/22 09:39:11;;;;;;;4.10;0.47;;;;;;;26.86;26.29;101939.75;4978324;28;20065;-77
2023/08/22 09:41:37;;;;;;;2.03;0.63;;;;;;;26.85;27.56;101943.44;4944271;28;20069;-78
2023/08/22 09:44:06;;;;;;;2.90;0.40;;;;;;;26.89;27.58;101936.78;4995206;28;20469;-80
2023/08/22 09:46:32;;;;;;;3.65;0.60;;;;;;;26.11;27.72;101936.75;4984933;28;20045;-78
2023/08/22 09:48:59;;;;;;;2.42;0.35;;;;;;;26.41;29.47;101930.44;4993837;28;20128;-78
2023/08/22 09:51:25;;;;;;;6.47;0.50;;;;;;;27.17;28.00;101942.28;4982859;28;20033;-78
2023/08/22 09:53:59;;;;;;;1.50;0.20;;;;;;;27.68;26.68;101941.81;4997306;28;20045;-77
2023/08/22 09:56:25;;;;;;;2.72;0.38;;;;;;;26.70;27.32;101935.81;4985471;28;20573;-78
2023/08/22 09:58:52;;;;;;;7.05;0.65;;;;;;;26.25;27.28;101940.88;4981283;28;20076;-76
2023/08/22 10:01:19;;;;;;;5.93;0.22;;;;;;;27.15;27.48;101939.72;4982943;28;20113;-76
2023/08/22 10:03:46;;;;;;;5.28;0.30;;;;;;;27.93;24.44;101937.56;4964721;28;20091;-77
2023/08/22 10:06:14;;;;;;;3.53;0.20;;;;;;;27.08;25.66;101934.06;4964126;28;20034;-77
2023/08/22 10:08:46;;;;;;;2.13;0.40;;;;;;;27.91;26.04;101930.66;4961457;28;20065;-77
2023/08/22 10:11:13;;;;;;;7.20;0.38;;;;;;;28.36;25.06;101939.69;4971307;28;20287;-79
2023/08/22 10:13:40;;;;;;;5.68;0.40;;;;;;;27.78;25.85;101935.53;4975785;28;20126;-80
2023/08/22 10:16:06;;;;;;;3.67;0.52;;;;;;;28.41;25.94;101932.00;4993409;28;20064;-79
2023/08/22 10:18:32;;;;;;;2.70;0.73;;;;;;;28.14;25.01;101936.47;4995798;28;20045;-80
2023/08/22 10:20:58;;;;;;;6.22;0.43;;;;;;;28.20;25.27;101932.31;4980991;28;20400;-80
2023/08/22 10:23:51;;;;;;;7.70;0.75;;;;;;;27.52;24.30;101934.38;4960662;28;20060;-78
2023/08/22 10:26:19;;;;;;;2.30;0.40;;;;;;;27.13;25.72;101939.03;4993642;28;20092;-77
2023/08/22 10:29:04;;;;;;;3.35;0.30;;;;;;;27.43;24.36;101934.38;4982330;28;20049;-78
2023/08/22 10:31:30;;;;;;;1.35;0.30;;;;;;;27.58;25.62;101945.50;4981039;28;20120;-76
2023/08/22 10:34:00;;;;;;;6.05;0.77;;;;;;;28.68;24.64;101944.53;4978664;28;20149;-78
2023/08/22 10:36:25;;;;;;;2.17;0.52;;;;;;;28.78;24.57;101928.31;4984301;28;20113;-77
2023/08/22 10:38:53;;;;;;;3.15;0.98;;;;;;;27.47;25.39;101936.66;4982352;28;20156;-78
2023/08/22 10:41:21;;;;;;;4.40;0.35;;;;;;;27.22;25.71;101929.25;4993311;28;20034;-76
2023/08/22 10:43:47;;;;;;;3.83;1.13;;;;;;;27.50;26.08;101919.41;4979944;28;20053;-78
2023/08/22 10:46:13;;;;;;;4.90;0.63;;;;;;;28.38;26.15;101929.63;4980189;28;20619;-76
2023/08/22 10:48:39;;;;;;;1.63;0.65;;;;;;;28.20;25.43;101924.25;4978550;28;20129;-77
2023/08/22 10:51:09;;;;;;;2.88;0.95;;;;;;;27.93;25.92;101929.50;4980885;28;20033;-78
2023/08/22 10:53:45;;;;;;;4.78;1.00;;;;;;;27.79;26.86;101924.66;4980100;28;20045;-76
2023/08/22 10:56:20;;;;;;;10.45;0.90;;;;;;;27.66;25.96;101921.47;4979182;28;20041;-77
2023/08/22 10:58:57;;;;;;;3.70;0.85;;;;;;;28.84;25.56;101923.16;4963238;28;20042;-78
2023/08/22 11:01:26;;;;;;;2.88;0.47;;;;;;;27.95;25.33;101925.84;4964143;28;20732;-76
2023/08/22 11:03:51;;;;;;;3.22;0.50;;;;;;;27.92;25.00;101933.19;4976235;28;20065;-78
2023/08/22 11:06:18;;;;;;;1.98;1.13;;;;;;;26.24;26.28;101917.75;4959680;28;20038;-79
2023/08/22 11:08:45;;;;;;;5.50;0.82;;;;;;;26.09;27.35;101925.34;4962880;28;20033;-79
2023/08/22 11:11:16;;;;;;;5.22;0.60;;;;;;;26.53;26.91;101923.09;4976474;28;20493;-78
2023/08/22 11:13:43;;;;;;;1.95;0.70;;;;;;;25.64;27.42;101925.75;4992815;28;20064;-79
2023/08/22 11:16:11;;;;;;;4.60;1.55;;;;;;;26.42;27.16;101928.59;4980603;28;20180;-78
2023/08/22 11:18:38;;;;;;;1.63;0.50;;;;;;;27.93;26.19;101924.13;4979247;28;20534;-76
2023/08/22 11:21:04;;;;;;;2.10;0.68;;;;;;;28.00;26.69;101929.75;4996270;28;20401;-77
2023/08/22 11:23:37;;;;;;;2.83;0.30;;;;;;;28.23;25.74;101924.78;4979554;28;20069;-78
2023/08/22 11:26:06;;;;;;;4.07;1.13;;;;;;;28.06;26.44;101922.94;4991118;28;20038;-75